Time;durP1;ratioP1;P1;durP2;ratioP2;P2;SDS_P1;SDS_P2;PMS_P1;PMS_P2;Temp;Humidity;BMP_temperature;BMP_pressure;BME280_temperature;BME280_humidity;BME280_pressure;Samples;Min_cycle;Max_cycle;Signal;HPM_P1;HPM_P2
2022/02/09 00:04:35;;;;;;;7.43;4.37;;;;;;;;;;5020915;28;20399;-80
2022/02/09 00:07:07;;;;;;;8.50;4.00;;;;;;;;;;5019444;28;20435;-82
2022/02/09 00:09:33;;;;;;;6.03;4.07;;;;;;;;;;5020439;28;20396;-80
2022/02/09 00:14:44;;;;;;;4.90;3.63;;;;;;;;;;5020480;28;20406;-80
2022/02/09 00:33:08;;;;;;;9.23;3.83;;;;;;;;;;5023043;28;20743;-80
2022/02/09 01:38:07;;;;;;;4.10;2.63;;;;;;;;;;5017853;28;20403;-80
2022/02/09 01:56:52;;;;;;;3.70;2.90;;;;;;;;;;5019098;28;20422;-81
2022/02/09 01:59:18;;;;;;;5.93;3.50;;;;;;;;;;5018205;28;20822;-80
2022/02/09 02:01:44;;;;;;;7.10;3.63;;;;;;;;;;5018809;28;20411;-80
2022/02/09 02:04:10;;;;;;;5.80;3.53;;;;;;;;;;5019893;28;20422;-80
2022/02/09 02:06:36;;;;;;;3.90;3.00;;;;;;;;;;5018511;28;20419;-81
2022/02/09 02:09:03;;;;;;;4.77;3.10;;;;;;;;;;5016776;28;20407;-80
2022/02/09 02:11:35;;;;;;;6.10;3.73;;;;;;;;;;5016400;28;20416;-80
2022/02/09 02:19:04;;;;;;;6.23;3.47;;;;;;;;;;5013087;28;20451;-80
2022/02/09 02:29:47;;;;;;;6.77;4.20;;;;;;;;;;5019279;28;20402;-80
2022/02/09 03:07:59;;;;;;;5.10;3.40;;;;;;;;;;5017646;28;20478;-80
2022/02/09 03:12:58;;;;;;;3.50;3.00;;;;;;;;;;5007372;28;20954;-80
2022/02/09 03:20:45;;;;;;;5.63;2.97;;;;;;;;;;5021305;28;20384;-79
2022/02/09 03:23:28;;;;;;;4.47;2.47;;;;;;;;;;5021683;28;20387;-80
2022/02/09 03:26:24;;;;;;;3.43;2.57;;;;;;;;;;5020008;28;20442;-80
2022/02/09 03:58:21;;;;;;;3.87;2.43;;;;;;;;;;5017557;28;20494;-81
2022/02/09 04:00:47;;;;;;;3.67;2.67;;;;;;;;;;5021134;28;20427;-81
2022/02/09 04:03:17;;;;;;;3.70;1.80;;;;;;;;;;5020012;28;20419;-80
2022/02/09 04:05:46;;;;;;;3.20;2.20;;;;;;;;;;5020248;28;20447;-81
2022/02/09 04:08:15;;;;;;;3.40;2.40;;;;;;;;;;5019087;28;20919;-81
2022/02/09 04:10:47;;;;;;;3.87;2.37;;;;;;;;;;5020770;28;20903;-80
2022/02/09 04:13:33;;;;;;;2.70;2.00;;;;;;;;;;5021264;28;20415;-81
2022/02/09 04:16:10;;;;;;;9.27;2.40;;;;;;;;;;5021464;28;20439;-80
2022/02/09 04:18:50;;;;;;;2.90;2.00;;;;;;;;;;5019114;28;20477;-80
2022/02/09 04:38:03;;;;;;;2.63;1.80;;;;;;;;;;5015057;28;20438;-80
2022/02/09 04:45:59;;;;;;;4.07;2.80;;;;;;;;;;4999809;28;20454;-80
2022/02/09 04:51:04;;;;;;;4.67;2.13;;;;;;;;;;4999954;28;20415;-80
2022/02/09 04:56:10;;;;;;;3.13;2.23;;;;;;;;;;4999967;28;20554;-80
2022/02/09 05:02:28;;;;;;;3.10;2.30;;;;;;;;;;5000992;28;20423;-80
2022/02/09 05:23:03;;;;;;;4.13;2.83;;;;;;;;;;5000099;28;20365;-80
2022/02/09 05:28:03;;;;;;;4.23;2.27;;;;;;;;;;5000910;28;20756;-79
2022/02/09 05:30:29;;;;;;;3.20;2.20;;;;;;;;;;4999688;28;20381;-80
2022/02/09 05:32:55;;;;;;;4.43;3.00;;;;;;;;;;4999213;28;20463;-80
2022/02/09 05:37:57;;;;;;;3.20;2.70;;;;;;;;;;5047623;22;20546;-78
2022/02/09 05:40:24;;;;;;;4.70;3.00;;;;;;;;;;5018221;28;20426;-79
2022/02/09 05:42:51;;;;;;;7.03;2.63;;;;;;;;;;5019968;28;20400;-79
2022/02/09 05:45:19;;;;;;;4.23;2.87;;;;;;;;;;5032909;28;20431;-80
2022/02/09 05:50:39;;;;;;;6.47;2.57;;;;;;;;;;5017694;28;20391;-80
2022/02/09 05:58:21;;;;;;;3.50;2.47;;;;;;;;;;5017553;28;20439;-81
2022/02/09 06:00:49;;;;;;;4.03;3.13;;;;;;;;;;5018440;28;20422;-78
2022/02/09 06:03:15;;;;;;;4.80;3.23;;;;;;;;;;5016634;28;20499;-78
2022/02/09 06:05:41;;;;;;;6.13;3.13;;;;;;;;;;5013914;28;20919;-79
2022/02/09 06:08:08;;;;;;;6.00;3.50;;;;;;;;;;5016769;28;20498;-79
2022/02/09 06:10:35;;;;;;;4.77;3.40;;;;;;;;;;5015937;28;20399;-79
2022/02/09 06:13:16;;;;;;;6.17;2.87;;;;;;;;;;5016801;28;20399;-79
2022/02/09 06:21:02;;;;;;;4.57;2.87;;;;;;;;;;5017693;28;20383;-80
2022/02/09 06:23:29;;;;;;;6.07;2.90;;;;;;;;;;5017236;28;20403;-81
2022/02/09 06:25:55;;;;;;;4.53;3.07;;;;;;;;;;5017122;28;20466;-81
2022/02/09 06:28:21;;;;;;;5.47;3.23;;;;;;;;;;5015341;28;20762;-80
2022/02/09 06:30:48;;;;;;;3.93;2.23;;;;;;;;;;5015922;28;20425;-79
2022/02/09 06:33:14;;;;;;;6.70;3.33;;;;;;;;;;5017249;28;20419;-80
2022/02/09 06:35:40;;;;;;;5.60;3.30;;;;;;;;;;5016946;28;20418;-80
2022/02/09 06:38:06;;;;;;;4.70;2.53;;;;;;;;;;5016937;28;20403;-80
2022/02/09 06:40:32;;;;;;;5.80;3.37;;;;;;;;;;5021148;28;20482;-80
2022/02/09 06:42:58;;;;;;;10.10;4.27;;;;;;;;;;5023379;28;20430;-79
2022/02/09 06:45:28;;;;;;;6.77;4.20;;;;;;;;;;5019943;28;20403;-80
2022/02/09 06:47:55;;;;;;;4.70;3.60;;;;;;;;;;5018631;28;20510;-79
2022/02/09 06:50:36;;;;;;;6.93;3.30;;;;;;;;;;5016414;28;20478;-80
2022/02/09 06:53:25;;;;;;;7.90;4.00;;;;;;;;;;5020247;28;20441;-79
2022/02/09 06:56:00;;;;;;;5.40;3.50;;;;;;;;;;5021204;28;20832;-80
2022/02/09 07:00:59;;;;;;;10.60;3.97;;;;;;;;;;5031809;28;20469;-79
2022/02/09 07:03:25;;;;;;;7.30;3.20;;;;;;;;;;5039674;28;20406;-80
2022/02/09 07:05:52;;;;;;;8.33;4.90;;;;;;;;;;5037054;28;20505;-80
2022/02/09 07:08:18;;;;;;;9.80;5.37;;;;;;;;;;5036971;28;20445;-80
2022/02/09 07:10:44;;;;;;;9.97;4.67;;;;;;;;;;5040807;28;20426;-79
2022/02/09 07:13:10;;;;;;;7.17;3.93;;;;;;;;;;5060163;28;20406;-79
2022/02/09 07:15:48;;;;;;;10.30;3.77;;;;;;;;;;5041918;28;20418;-79
2022/02/09 07:18:15;;;;;;;8.07;5.80;;;;;;;;;;5035714;28;20472;-79
2022/02/09 07:21:05;;;;;;;8.47;3.27;;;;;;;;;;5035574;28;20450;-80
2022/02/09 07:26:19;;;;;;;8.33;5.30;;;;;;;;;;5039663;28;20446;-79
2022/02/09 07:28:45;;;;;;;9.13;4.20;;;;;;;;;;5041499;28;20824;-80
2022/02/09 07:31:12;;;;;;;11.73;6.20;;;;;;;;;;5039954;28;20418;-80
2022/02/09 07:33:40;;;;;;;13.53;6.30;;;;;;;;;;5038216;28;20430;-81
2022/02/09 07:36:06;;;;;;;11.17;5.27;;;;;;;;;;5038771;28;20990;-80
2022/02/09 07:38:33;;;;;;;11.13;5.57;;;;;;;;;;5038546;28;20552;-80
2022/02/09 07:41:00;;;;;;;7.70;3.83;;;;;;;;;;5039396;28;20786;-80
2022/02/09 07:46:32;;;;;;;6.57;4.50;;;;;;;;;;5027498;28;20440;-79
2022/02/09 07:49:05;;;;;;;7.37;3.90;;;;;;;;;;5030075;28;20858;-80
2022/02/09 07:54:02;;;;;;;12.87;5.30;;;;;;;;;;5034974;28;20423;-80
2022/02/09 07:56:30;;;;;;;9.87;4.50;;;;;;;;;;5035895;28;20462;-81
2022/02/09 07:58:56;;;;;;;9.70;4.47;;;;;;;;;;5032910;28;20462;-81
2022/02/09 08:01:23;;;;;;;9.43;4.20;;;;;;;;;;5038030;28;21009;-81
2022/02/09 08:03:50;;;;;;;9.63;4.57;;;;;;;;;;5038336;28;20496;-80
2022/02/09 08:06:17;;;;;;;11.27;4.40;;;;;;;;;;5036729;28;20448;-81
2022/02/09 08:08:45;;;;;;;7.83;4.13;;;;;;;;;;5038013;28;20434;-80
2022/02/09 08:11:26;;;;;;;9.07;3.80;;;;;;;;;;5033586;28;20480;-80
2022/02/09 08:33:05;;;;;;;3.53;2.00;;;;;;;;;;5013689;28;20442;-78
2022/02/09 08:35:32;;;;;;;2.93;2.00;;;;;;;;;;5040825;28;20524;-79
2022/02/09 08:37:59;;;;;;;10.03;2.50;;;;;;;;;;5035002;28;20446;-79
2022/02/09 08:40:26;;;;;;;6.00;1.83;;;;;;;;;;5035411;28;20426;-79
2022/02/09 08:42:53;;;;;;;2.10;1.50;;;;;;;;;;5035163;28;20476;-79
2022/02/09 08:45:19;;;;;;;5.33;3.00;;;;;;;;;;5032423;28;20487;-79
2022/02/09 08:47:47;;;;;;;2.40;1.60;;;;;;;;;;5031140;28;20458;-79
2022/02/09 08:50:13;;;;;;;4.37;1.50;;;;;;;;;;5031649;28;20902;-78
2022/02/09 08:52:39;;;;;;;2.93;1.70;;;;;;;;;;5033031;28;20422;-81
2022/02/09 08:55:06;;;;;;;7.43;1.40;;;;;;;;;;5031830;28;20465;-79
2022/02/09 08:57:34;;;;;;;3.87;1.90;;;;;;;;;;5028222;28;20456;-79
2022/02/09 09:00:07;;;;;;;2.87;1.80;;;;;;;;;;5033138;28;20461;-81
2022/02/09 09:02:35;;;;;;;4.10;1.93;;;;;;;;;;5044865;28;20399;-79
2022/02/09 09:05:16;;;;;;;3.73;1.93;;;;;;;;;;5044871;28;20413;-80
2022/02/09 09:07:47;;;;;;;2.60;1.77;;;;;;;;;;5039909;28;20783;-80
2022/02/09 09:10:25;;;;;;;4.33;2.00;;;;;;;;;;5037448;28;20399;-79
2022/02/09 09:41:55;;;;;;;2.70;1.60;;;;;;;;;;5042512;28;20425;-78
2022/02/09 10:02:53;;;;;;;5.43;3.23;;;;;;;;;;5039709;28;20405;-80
2022/02/09 10:33:37;;;;;;;3.77;2.03;;;;;;;;;;5037060;28;20487;-79
2022/02/09 10:36:12;;;;;;;4.83;1.40;;;;;;;;;;5034978;28;20460;-79
2022/02/09 10:38:41;;;;;;;6.00;1.50;;;;;;;;;;5038931;28;20449;-78
2022/02/09 10:41:13;;;;;;;4.03;1.60;;;;;;;;;;5036873;28;20414;-78
2022/02/09 10:43:42;;;;;;;3.93;1.47;;;;;;;;;;5035474;28;20411;-78
2022/02/09 10:46:14;;;;;;;2.90;1.23;;;;;;;;;;5035844;28;20734;-79
2022/02/09 10:48:49;;;;;;;4.80;1.70;;;;;;;;;;5034488;28;20541;-79
2022/02/09 10:51:34;;;;;;;2.40;1.60;;;;;;;;;;5034836;28;20500;-79
2022/02/09 10:54:19;;;;;;;3.20;1.50;;;;;;;;;;5035859;28;20410;-79
2022/02/09 10:56:47;;;;;;;3.03;1.70;;;;;;;;;;5035429;28;20445;-79
2022/02/09 10:59:15;;;;;;;2.53;1.50;;;;;;;;;;5034632;28;20989;-78
2022/02/09 11:01:42;;;;;;;2.43;1.70;;;;;;;;;;5033427;28;20415;-80
2022/02/09 11:04:08;;;;;;;3.13;1.77;;;;;;;;;;5035426;28;20422;-80
2022/02/09 11:06:36;;;;;;;8.13;1.40;;;;;;;;;;5036553;28;20977;-80
2022/02/09 11:09:04;;;;;;;3.30;1.57;;;;;;;;;;5035348;28;20452;-80
2022/02/09 11:11:31;;;;;;;3.20;1.63;;;;;;;;;;5036544;28;20868;-79
2022/02/09 11:13:57;;;;;;;4.00;1.97;;;;;;;;;;5034304;28;20445;-80
2022/02/09 11:16:23;;;;;;;2.50;1.63;;;;;;;;;;5035850;28;20988;-81
2022/02/09 11:18:50;;;;;;;3.37;2.23;;;;;;;;;;5035004;28;20457;-79
2022/02/09 11:21:17;;;;;;;2.43;1.20;;;;;;;;;;5038982;28;20506;-78
2022/02/09 11:23:49;;;;;;;4.00;2.20;;;;;;;;;;5044515;28;20437;-80
2022/02/09 11:26:39;;;;;;;6.93;1.87;;;;;;;;;;5040488;28;20446;-79
2022/02/09 11:29:20;;;;;;;2.90;1.60;;;;;;;;;;5037323;28;20537;-78
2022/02/09 11:37:48;;;;;;;7.07;2.60;;;;;;;;;;5036648;23;20517;31
2022/02/09 11:40:45;;;;;;;5.50;1.53;;;;;;;;;;5010171;28;20456;-77
2022/02/09 11:59:51;;;;;;;4.30;1.47;;;;;;;;;;5012787;28;20517;-78
2022/02/09 12:11:03;;;;;;;2.70;1.13;;;;;;;;;;5010774;28;20947;-77
2022/02/09 12:13:48;;;;;;;5.10;1.47;;;;;;;;;;5010394;28;20419;-77
2022/02/09 12:19:09;;;;;;;2.00;1.40;;;;;;;;;;5008855;28;20635;-78
2022/02/09 12:24:18;;;;;;;1.80;1.10;;;;;;;;;;5012508;28;20459;-78
2022/02/09 12:27:02;;;;;;;1.90;1.20;;;;;;;;;;5012954;28;20423;-78
2022/02/09 12:29:33;;;;;;;6.80;1.10;;;;;;;;;;5012544;28;20457;-77
2022/02/09 12:32:00;;;;;;;2.33;1.13;;;;;;;;;;5016373;28;20416;-78
2022/02/09 12:34:28;;;;;;;6.50;1.80;;;;;;;;;;5013517;28;20426;-76
2022/02/09 12:36:55;;;;;;;1.80;1.10;;;;;;;;;;5008595;28;20927;-76
2022/02/09 12:39:21;;;;;;;4.20;1.80;;;;;;;;;;5013056;28;20477;-76
2022/02/09 12:41:49;;;;;;;2.33;1.30;;;;;;;;;;5012079;28;20506;-76
2022/02/09 12:44:21;;;;;;;1.70;1.17;;;;;;;;;;5012187;28;20475;-76
2022/02/09 12:46:47;;;;;;;3.50;1.00;;;;;;;;;;5012434;28;20425;-76
2022/02/09 12:49:18;;;;;;;6.40;1.37;;;;;;;;;;5012726;28;20447;-76
2022/02/09 12:51:46;;;;;;;2.20;1.30;;;;;;;;;;5011427;28;20463;-77
2022/02/09 12:54:13;;;;;;;4.33;1.70;;;;;;;;;;5011958;28;20437;-77
2022/02/09 12:56:41;;;;;;;2.03;1.10;;;;;;;;;;5011377;28;20514;-77
2022/02/09 12:59:08;;;;;;;2.40;1.30;;;;;;;;;;5012265;28;20874;-77
2022/02/09 13:01:53;;;;;;;2.00;1.10;;;;;;;;;;5009599;28;20428;-77
2022/02/09 13:04:28;;;;;;;3.40;1.30;;;;;;;;;;5011563;28;20428;-76
2022/02/09 13:06:55;;;;;;;1.70;1.00;;;;;;;;;;5011976;28;20923;-76
2022/02/09 13:09:21;;;;;;;2.27;1.30;;;;;;;;;;5010061;28;20448;-77
2022/02/09 13:11:47;;;;;;;3.37;1.30;;;;;;;;;;5013134;28;20450;-76
2022/02/09 13:14:24;;;;;;;2.10;1.20;;;;;;;;;;5009098;28;20493;-77
2022/02/09 13:19:58;;;;;;;2.20;1.27;;;;;;;;;;5012008;28;20467;-76
2022/02/09 13:22:48;;;;;;;3.57;1.17;;;;;;;;;;5008999;28;20423;-76
2022/02/09 14:07:12;;;;;;;2.30;1.40;;;;;;;;;;5013736;28;21019;-77
2022/02/09 14:58:14;;;;;;;2.27;1.50;;;;;;;;;;5003876;28;20481;-78
2022/02/09 15:01:07;;;;;;;2.30;1.33;;;;;;;;;;5007455;28;20439;-77
2022/02/09 15:11:17;;;;;;;2.33;1.30;;;;;;;;;;5004478;28;20442;-78
2022/02/09 15:14:04;;;;;;;3.33;1.40;;;;;;;;;;5008421;28;20431;-77
2022/02/09 15:16:37;;;;;;;2.33;1.47;;;;;;;;;;5007762;28;20436;-77
2022/02/09 15:24:04;;;;;;;2.10;1.30;;;;;;;;;;5009311;28;20435;-77
2022/02/09 15:26:31;;;;;;;1.77;1.00;;;;;;;;;;5009122;28;20431;-77
2022/02/09 15:28:58;;;;;;;1.80;1.10;;;;;;;;;;5008729;28;20443;-78
2022/02/09 15:31:40;;;;;;;10.90;2.50;;;;;;;;;;5005052;28;20459;-77
2022/02/09 15:34:31;;;;;;;5.60;2.43;;;;;;;;;;5010778;28;20430;-78
2022/02/09 15:39:47;;;;;;;2.40;1.40;;;;;;;;;;5009305;28;20601;-77
2022/02/09 16:38:17;;;;;;;5.00;2.57;;;;;;;;;;5015991;28;20534;-76
2022/02/09 16:46:18;;;;;;;6.20;2.83;;;;;;;;;;5011552;28;20501;-76
2022/02/09 16:49:00;;;;;;;4.90;2.90;;;;;;;;;;5012302;28;20430;-76
2022/02/09 16:51:28;;;;;;;5.10;3.23;;;;;;;;;;5007497;28;20963;-76
2022/02/09 17:21:03;;;;;;;6.90;3.53;;;;;;;;;;5012006;28;20902;-77
2022/02/09 17:23:30;;;;;;;13.57;4.43;;;;;;;;;;5011507;28;20786;-77
2022/02/09 17:25:56;;;;;;;14.00;4.83;;;;;;;;;;5012455;28;20783;-77
2022/02/09 17:28:22;;;;;;;8.23;5.17;;;;;;;;;;5012336;28;20835;-77
2022/02/09 17:31:19;;;;;;;17.90;5.30;;;;;;;;;;5012842;28;20423;-76
2022/02/09 17:39:23;;;;;;;8.10;4.50;;;;;;;;;;5043782;22;20517;-80
2022/02/09 17:58:31;;;;;;;20.30;6.37;;;;;;;;;;5057735;28;20420;-80
2022/02/09 18:00:58;;;;;;;17.37;7.10;;;;;;;;;;5058109;28;20417;-80
2022/02/09 18:03:24;;;;;;;13.30;7.97;;;;;;;;;;5056920;28;20409;-79
2022/02/09 18:05:53;;;;;;;10.90;6.70;;;;;;;;;;5057508;28;20402;-80
2022/02/09 18:08:25;;;;;;;13.77;6.10;;;;;;;;;;5057203;28;20607;-80
2022/02/09 18:11:25;;;;;;;22.97;10.50;;;;;;;;;;5057994;28;20369;-80
2022/02/09 18:30:08;;;;;;;7.90;5.07;;;;;;;;;;5041048;28;20438;-80
2022/02/09 18:33:05;;;;;;;11.27;5.17;;;;;;;;;;5038814;28;20417;-80
2022/02/09 18:44:14;;;;;;;10.93;5.30;;;;;;;;;;5039293;28;20366;-80
2022/02/09 19:04:29;;;;;;;11.33;4.97;;;;;;;;;;5040721;28;20871;-80
2022/02/09 19:17:28;;;;;;;12.10;5.40;;;;;;;;;;5039960;28;20402;-80
2022/02/09 19:20:05;;;;;;;15.27;4.80;;;;;;;;;;5040390;28;20461;-78
2022/02/09 19:46:50;;;;;;;11.47;5.87;;;;;;;;;;5040034;28;20398;-80
2022/02/09 19:54:42;;;;;;;11.07;6.07;;;;;;;;;;5040790;28;20730;-80
2022/02/09 19:57:09;;;;;;;10.80;5.00;;;;;;;;;;5040208;28;20387;-80
2022/02/09 19:59:37;;;;;;;14.17;6.57;;;;;;;;;;5036613;28;20461;-80
2022/02/09 20:02:06;;;;;;;10.93;6.23;;;;;;;;;;5040688;28;20436;-80
2022/02/09 20:04:32;;;;;;;12.47;7.03;;;;;;;;;;5039319;28;20429;-79
2022/02/09 20:06:58;;;;;;;10.13;6.40;;;;;;;;;;5039693;28;20398;-80
2022/02/09 20:09:26;;;;;;;9.87;6.43;;;;;;;;;;5039354;28;20854;-80
2022/02/09 20:11:52;;;;;;;12.33;6.57;;;;;;;;;;5040469;28;20413;-80
2022/02/09 20:14:19;;;;;;;9.43;6.20;;;;;;;;;;5039500;28;20491;-80
2022/02/09 20:16:45;;;;;;;8.40;5.90;;;;;;;;;;5039109;28;20427;-80
2022/02/09 20:19:12;;;;;;;14.17;7.20;;;;;;;;;;5039465;28;20943;-79
2022/02/09 20:21:38;;;;;;;14.70;7.07;;;;;;;;;;5038292;28;20403;-80
2022/02/09 20:24:07;;;;;;;13.57;7.03;;;;;;;;;;5039041;28;20399;-80
2022/02/09 20:26:33;;;;;;;13.03;8.67;;;;;;;;;;5038800;28;20402;-80
2022/02/09 20:29:04;;;;;;;19.43;9.97;;;;;;;;;;5037528;28;20509;-81
2022/02/09 20:31:35;;;;;;;11.40;7.00;;;;;;;;;;5039406;28;20398;-80
2022/02/09 20:34:10;;;;;;;11.90;6.90;;;;;;;;;;5038760;28;20421;-80
2022/02/09 20:36:37;;;;;;;13.77;6.30;;;;;;;;;;5037295;28;20910;-80
2022/02/09 20:39:06;;;;;;;22.37;5.63;;;;;;;;;;5035927;28;20469;-80
2022/02/09 20:41:34;;;;;;;10.60;5.43;;;;;;;;;;5039038;28;20399;-79
2022/02/09 20:44:19;;;;;;;9.27;5.53;;;;;;;;;;5039200;28;20410;-79
2022/02/09 20:46:45;;;;;;;6.83;4.43;;;;;;;;;;5038481;28;20379;-80
2022/02/09 20:49:11;;;;;;;6.60;4.40;;;;;;;;;;5037663;28;20433;-80
2022/02/09 20:51:37;;;;;;;9.30;4.80;;;;;;;;;;5037892;28;20493;-78
2022/02/09 20:54:03;;;;;;;8.23;4.97;;;;;;;;;;5038431;28;20752;-78
2022/02/09 20:56:30;;;;;;;8.10;4.90;;;;;;;;;;5039048;28;20398;-80
2022/02/09 20:59:01;;;;;;;8.73;5.00;;;;;;;;;;5038683;28;20458;-78
2022/02/09 21:01:41;;;;;;;12.40;4.70;;;;;;;;;;5038091;28;20779;-80
2022/02/09 21:04:10;;;;;;;7.60;4.87;;;;;;;;;;5039121;28;20881;-80
2022/02/09 21:18:23;;;;;;;10.47;5.03;;;;;;;;;;5041227;28;20390;-80
2022/02/09 21:44:34;;;;;;;7.10;4.63;;;;;;;;;;5037088;28;20382;-79
2022/02/09 21:51:15;;;;;;;8.43;4.67;;;;;;;;;;5037325;28;20434;-79
2022/02/09 21:55:08;;;;;;;6.70;4.90;;;;;;;;;;5036848;28;20409;-79
2022/02/09 21:57:43;;;;;;;13.00;6.00;;;;;;;;;;5037635;28;20410;-79
2022/02/09 22:56:45;;;;;;;6.13;4.30;;;;;;;;;;5037050;28;20428;-80
2022/02/09 22:59:20;;;;;;;7.80;3.93;;;;;;;;;;5036842;28;20458;-80
2022/02/09 23:09:42;;;;;;;5.63;4.17;;;;;;;;;;5038356;28;20429;-79
2022/02/09 23:12:17;;;;;;;5.17;3.57;;;;;;;;;;5037346;28;20414;-80
2022/02/09 23:14:51;;;;;;;7.10;4.77;;;;;;;;;;5041243;28;20447;-79
